Terminal Aerodrome Forecast
Issued by NWS

Current Version | Previous Version | Graphics & Text | Print | Product List | Glossary On
Versions: 1 2 3 4 5 6 7 8 9 10 11 12 13 14 15 16 17 18 19 20
526
FTUS41 KILN 172100 AAB
TAFLUK
TAF AMD
KLUK 172100Z 1721/1818 21004KT 3SM -SN BR VCSH OVC005
     FM180000 22005KT P6SM VCSH OVC009
     FM180500 28007KT P6SM BKN015
     FM180900 29005KT P6SM SCT020
     FM181500 14005KT P6SM SCT250=

USA.gov is the U.S. government's official web portal to all federal, state and local government web resources and services.